sensor_id;sensor_type;location;lat;lon;timestamp;P1;durP1;ratioP1;P2;durP2;ratioP2
11228;SDS011;5671;47.936;8.716;2022-09-12T00:01:58;1.30;;;1.20;;
11228;SDS011;5671;47.936;8.716;2022-09-12T00:04:25;6.80;;;1.20;;
11228;SDS011;5671;47.936;8.716;2022-09-12T00:06:52;1.30;;;1.20;;
11228;SDS011;5671;47.936;8.716;2022-09-12T00:09:19;1.80;;;1.20;;
11228;SDS011;5671;47.936;8.716;2022-09-12T00:11:47;1.17;;;1.17;;
11228;SDS011;5671;47.936;8.716;2022-09-12T00:14:16;1.10;;;1.10;;
11228;SDS011;5671;47.936;8.716;2022-09-12T00:16:44;2.53;;;1.23;;
11228;SDS011;5671;47.936;8.716;2022-09-12T00:19:11;1.07;;;0.90;;
11228;SDS011;5671;47.936;8.716;2022-09-12T00:21:39;1.47;;;1.37;;
11228;SDS011;5671;47.936;8.716;2022-09-12T00:24:06;1.53;;;1.43;;
11228;SDS011;5671;47.936;8.716;2022-09-12T00:26:35;6.53;;;1.63;;
11228;SDS011;5671;47.936;8.716;2022-09-12T00:29:22;1.70;;;1.60;;
11228;SDS011;5671;47.936;8.716;2022-09-12T00:31:49;1.90;;;1.80;;
11228;SDS011;5671;47.936;8.716;2022-09-12T00:34:19;1.87;;;1.77;;
11228;SDS011;5671;47.936;8.716;2022-09-12T00:36:59;1.60;;;1.50;;
11228;SDS011;5671;47.936;8.716;2022-09-12T00:39:26;1.60;;;1.50;;
11228;SDS011;5671;47.936;8.716;2022-09-12T00:41:53;2.70;;;1.30;;
11228;SDS011;5671;47.936;8.716;2022-09-12T00:47:18;3.10;;;1.30;;
11228;SDS011;5671;47.936;8.716;2022-09-12T00:49:50;1.73;;;1.63;;
11228;SDS011;5671;47.936;8.716;2022-09-12T00:52:21;2.03;;;1.50;;
11228;SDS011;5671;47.936;8.716;2022-09-12T00:54:52;1.80;;;1.70;;
11228;SDS011;5671;47.936;8.716;2022-09-12T00:57:23;5.83;;;1.90;;
11228;SDS011;5671;47.936;8.716;2022-09-12T00:59:57;7.70;;;2.53;;
11228;SDS011;5671;47.936;8.716;2022-09-12T01:02:28;2.77;;;2.43;;
11228;SDS011;5671;47.936;8.716;2022-09-12T01:04:55;2.17;;;2.00;;
11228;SDS011;5671;47.936;8.716;2022-09-12T01:07:22;6.23;;;2.13;;
11228;SDS011;5671;47.936;8.716;2022-09-12T01:09:50;1.97;;;1.77;;
11228;SDS011;5671;47.936;8.716;2022-09-12T01:12:17;1.60;;;1.50;;
11228;SDS011;5671;47.936;8.716;2022-09-12T01:14:45;4.20;;;2.10;;
11228;SDS011;5671;47.936;8.716;2022-09-12T01:17:13;2.00;;;1.90;;
11228;SDS011;5671;47.936;8.716;2022-09-12T01:22:52;1.93;;;1.80;;
11228;SDS011;5671;47.936;8.716;2022-09-12T01:25:50;2.03;;;1.90;;
11228;SDS011;5671;47.936;8.716;2022-09-12T01:28:49;3.40;;;2.40;;
11228;SDS011;5671;47.936;8.716;2022-09-12T01:31:30;5.40;;;2.00;;
11228;SDS011;5671;47.936;8.716;2022-09-12T01:34:05;3.77;;;1.80;;
11228;SDS011;5671;47.936;8.716;2022-09-12T01:36:42;5.27;;;1.50;;
11228;SDS011;5671;47.936;8.716;2022-09-12T01:39:24;15.70;;;1.70;;
11228;SDS011;5671;47.936;8.716;2022-09-12T01:42:01;1.50;;;1.40;;
11228;SDS011;5671;47.936;8.716;2022-09-12T01:44:36;1.30;;;1.13;;
11228;SDS011;5671;47.936;8.716;2022-09-12T01:47:13;4.03;;;1.47;;
11228;SDS011;5671;47.936;8.716;2022-09-12T01:49:48;1.43;;;1.30;;
11228;SDS011;5671;47.936;8.716;2022-09-12T01:52:21;2.80;;;2.00;;
11228;SDS011;5671;47.936;8.716;2022-09-12T01:54:53;2.97;;;1.80;;
11228;SDS011;5671;47.936;8.716;2022-09-12T01:57:26;1.80;;;1.70;;
11228;SDS011;5671;47.936;8.716;2022-09-12T01:59:58;6.30;;;2.00;;
11228;SDS011;5671;47.936;8.716;2022-09-12T02:02:31;2.80;;;2.10;;
11228;SDS011;5671;47.936;8.716;2022-09-12T02:05:02;2.20;;;2.03;;
11228;SDS011;5671;47.936;8.716;2022-09-12T02:07:34;2.50;;;2.30;;
11228;SDS011;5671;47.936;8.716;2022-09-12T02:10:05;4.10;;;2.53;;
11228;SDS011;5671;47.936;8.716;2022-09-12T02:12:37;3.10;;;2.80;;
11228;SDS011;5671;47.936;8.716;2022-09-12T02:15:08;7.83;;;2.60;;
11228;SDS011;5671;47.936;8.716;2022-09-12T02:17:40;18.57;;;3.30;;
11228;SDS011;5671;47.936;8.716;2022-09-12T02:20:11;52.67;;;3.67;;
11228;SDS011;5671;47.936;8.716;2022-09-12T02:22:41;38.33;;;3.30;;
11228;SDS011;5671;47.936;8.716;2022-09-12T02:25:10;44.63;;;3.37;;
11228;SDS011;5671;47.936;8.716;2022-09-12T02:27:42;76.77;;;3.80;;
11228;SDS011;5671;47.936;8.716;2022-09-12T02:30:12;64.90;;;3.50;;
11228;SDS011;5671;47.936;8.716;2022-09-12T02:32:43;39.47;;;3.20;;
11228;SDS011;5671;47.936;8.716;2022-09-12T02:35:21;20.40;;;2.87;;
11228;SDS011;5671;47.936;8.716;2022-09-12T02:37:58;17.33;;;2.67;;
11228;SDS011;5671;47.936;8.716;2022-09-12T02:40:29;30.33;;;3.13;;
11228;SDS011;5671;47.936;8.716;2022-09-12T02:42:57;16.73;;;2.80;;
11228;SDS011;5671;47.936;8.716;2022-09-12T02:45:25;3.57;;;2.13;;
11228;SDS011;5671;47.936;8.716;2022-09-12T02:47:55;31.97;;;3.20;;
11228;SDS011;5671;47.936;8.716;2022-09-12T02:50:25;16.53;;;2.40;;
11228;SDS011;5671;47.936;8.716;2022-09-12T02:52:53;17.90;;;2.70;;
11228;SDS011;5671;47.936;8.716;2022-09-12T02:55:24;13.43;;;2.30;;
11228;SDS011;5671;47.936;8.716;2022-09-12T02:57:54;6.30;;;2.20;;
11228;SDS011;5671;47.936;8.716;2022-09-12T03:00:21;8.73;;;2.40;;
11228;SDS011;5671;47.936;8.716;2022-09-12T03:02:53;12.07;;;2.17;;
11228;SDS011;5671;47.936;8.716;2022-09-12T03:05:34;6.27;;;2.07;;
11228;SDS011;5671;47.936;8.716;2022-09-12T03:08:14;14.27;;;2.00;;
11228;SDS011;5671;47.936;8.716;2022-09-12T03:11:03;30.03;;;2.53;;
11228;SDS011;5671;47.936;8.716;2022-09-12T03:13:44;19.83;;;2.57;;
11228;SDS011;5671;47.936;8.716;2022-09-12T03:16:22;30.37;;;2.57;;
11228;SDS011;5671;47.936;8.716;2022-09-12T03:18:59;36.60;;;2.40;;
11228;SDS011;5671;47.936;8.716;2022-09-12T03:21:36;26.03;;;2.40;;
11228;SDS011;5671;47.936;8.716;2022-09-12T03:24:15;12.90;;;2.50;;
11228;SDS011;5671;47.936;8.716;2022-09-12T03:26:46;19.83;;;2.50;;
11228;SDS011;5671;47.936;8.716;2022-09-12T03:29:16;17.60;;;2.40;;
11228;SDS011;5671;47.936;8.716;2022-09-12T03:31:48;20.10;;;1.97;;
11228;SDS011;5671;47.936;8.716;2022-09-12T03:34:17;22.67;;;2.20;;
11228;SDS011;5671;47.936;8.716;2022-09-12T03:36:45;22.33;;;2.07;;
11228;SDS011;5671;47.936;8.716;2022-09-12T03:39:13;38.63;;;2.77;;
11228;SDS011;5671;47.936;8.716;2022-09-12T03:41:39;33.10;;;2.20;;
11228;SDS011;5671;47.936;8.716;2022-09-12T03:44:06;30.90;;;2.33;;
11228;SDS011;5671;47.936;8.716;2022-09-12T03:46:34;48.60;;;2.90;;
11228;SDS011;5671;47.936;8.716;2022-09-12T03:49:01;29.33;;;2.73;;
11228;SDS011;5671;47.936;8.716;2022-09-12T03:51:29;23.80;;;2.13;;
11228;SDS011;5671;47.936;8.716;2022-09-12T03:53:56;36.03;;;2.67;;
11228;SDS011;5671;47.936;8.716;2022-09-12T03:56:23;10.43;;;1.80;;
11228;SDS011;5671;47.936;8.716;2022-09-12T03:58:50;36.60;;;2.33;;
11228;SDS011;5671;47.936;8.716;2022-09-12T04:01:18;6.73;;;1.50;;
11228;SDS011;5671;47.936;8.716;2022-09-12T04:03:46;23.27;;;2.00;;
11228;SDS011;5671;47.936;8.716;2022-09-12T04:06:15;7.90;;;1.70;;
11228;SDS011;5671;47.936;8.716;2022-09-12T04:08:48;6.27;;;1.50;;
11228;SDS011;5671;47.936;8.716;2022-09-12T04:11:17;6.43;;;1.60;;
11228;SDS011;5671;47.936;8.716;2022-09-12T04:13:45;4.80;;;1.43;;
11228;SDS011;5671;47.936;8.716;2022-09-12T04:16:13;13.97;;;1.40;;
11228;SDS011;5671;47.936;8.716;2022-09-12T04:18:47;2.20;;;1.10;;
11228;SDS011;5671;47.936;8.716;2022-09-12T04:21:15;3.77;;;1.30;;
11228;SDS011;5671;47.936;8.716;2022-09-12T04:23:45;3.13;;;1.07;;
11228;SDS011;5671;47.936;8.716;2022-09-12T04:26:12;7.93;;;1.10;;
11228;SDS011;5671;47.936;8.716;2022-09-12T04:28:41;4.47;;;1.20;;
11228;SDS011;5671;47.936;8.716;2022-09-12T04:31:09;2.00;;;1.20;;
11228;SDS011;5671;47.936;8.716;2022-09-12T04:33:39;11.37;;;1.23;;
11228;SDS011;5671;47.936;8.716;2022-09-12T04:36:07;35.97;;;1.83;;
11228;SDS011;5671;47.936;8.716;2022-09-12T04:38:36;1.47;;;1.00;;
11228;SDS011;5671;47.936;8.716;2022-09-12T04:41:10;10.23;;;1.40;;
11228;SDS011;5671;47.936;8.716;2022-09-12T04:43:38;2.63;;;1.20;;
11228;SDS011;5671;47.936;8.716;2022-09-12T04:46:05;28.57;;;1.93;;
11228;SDS011;5671;47.936;8.716;2022-09-12T04:48:33;58.07;;;2.90;;
11228;SDS011;5671;47.936;8.716;2022-09-12T04:51:07;47.23;;;2.37;;
11228;SDS011;5671;47.936;8.716;2022-09-12T04:53:35;51.40;;;2.43;;
11228;SDS011;5671;47.936;8.716;2022-09-12T04:56:02;8.83;;;1.50;;
11228;SDS011;5671;47.936;8.716;2022-09-12T04:58:32;27.27;;;1.90;;
11228;SDS011;5671;47.936;8.716;2022-09-12T05:01:03;16.60;;;1.70;;
11228;SDS011;5671;47.936;8.716;2022-09-12T05:03:31;6.50;;;1.30;;
11228;SDS011;5671;47.936;8.716;2022-09-12T05:05:58;18.60;;;1.50;;
11228;SDS011;5671;47.936;8.716;2022-09-12T05:08:27;9.83;;;1.37;;
11228;SDS011;5671;47.936;8.716;2022-09-12T05:10:54;6.80;;;1.17;;
11228;SDS011;5671;47.936;8.716;2022-09-12T05:13:21;42.13;;;2.20;;
11228;SDS011;5671;47.936;8.716;2022-09-12T05:15:54;37.63;;;2.20;;
11228;SDS011;5671;47.936;8.716;2022-09-12T05:18:21;12.90;;;1.20;;
11228;SDS011;5671;47.936;8.716;2022-09-12T05:20:48;8.50;;;1.30;;
11228;SDS011;5671;47.936;8.716;2022-09-12T05:23:15;39.93;;;2.73;;
11228;SDS011;5671;47.936;8.716;2022-09-12T05:25:46;43.63;;;2.37;;
11228;SDS011;5671;47.936;8.716;2022-09-12T05:28:14;129.63;;;4.60;;
11228;SDS011;5671;47.936;8.716;2022-09-12T05:30:41;61.17;;;2.80;;
11228;SDS011;5671;47.936;8.716;2022-09-12T05:33:09;59.67;;;2.53;;
11228;SDS011;5671;47.936;8.716;2022-09-12T05:35:37;21.73;;;1.70;;
11228;SDS011;5671;47.936;8.716;2022-09-12T05:38:04;11.40;;;1.70;;
11228;SDS011;5671;47.936;8.716;2022-09-12T05:40:31;2.00;;;0.87;;
11228;SDS011;5671;47.936;8.716;2022-09-12T05:42:59;40.97;;;2.90;;
11228;SDS011;5671;47.936;8.716;2022-09-12T05:45:26;2.83;;;1.10;;
11228;SDS011;5671;47.936;8.716;2022-09-12T05:47:53;9.93;;;1.60;;
11228;SDS011;5671;47.936;8.716;2022-09-12T05:50:21;16.23;;;1.53;;
11228;SDS011;5671;47.936;8.716;2022-09-12T05:52:49;8.37;;;1.40;;
11228;SDS011;5671;47.936;8.716;2022-09-12T05:55:16;15.93;;;1.33;;
11228;SDS011;5671;47.936;8.716;2022-09-12T05:57:43;6.00;;;1.13;;
11228;SDS011;5671;47.936;8.716;2022-09-12T06:00:11;9.80;;;1.33;;
11228;SDS011;5671;47.936;8.716;2022-09-12T06:02:39;27.27;;;1.70;;
11228;SDS011;5671;47.936;8.716;2022-09-12T06:05:06;21.30;;;1.53;;
11228;SDS011;5671;47.936;8.716;2022-09-12T06:07:36;15.07;;;1.60;;
11228;SDS011;5671;47.936;8.716;2022-09-12T06:10:03;23.87;;;1.90;;
11228;SDS011;5671;47.936;8.716;2022-09-12T06:12:30;16.43;;;1.70;;
11228;SDS011;5671;47.936;8.716;2022-09-12T06:14:57;5.10;;;1.50;;
11228;SDS011;5671;47.936;8.716;2022-09-12T06:17:24;4.93;;;1.20;;
11228;SDS011;5671;47.936;8.716;2022-09-12T06:19:51;14.13;;;1.53;;
11228;SDS011;5671;47.936;8.716;2022-09-12T06:22:18;5.87;;;1.13;;
11228;SDS011;5671;47.936;8.716;2022-09-12T06:24:46;3.00;;;1.70;;
11228;SDS011;5671;47.936;8.716;2022-09-12T06:27:13;1.20;;;1.10;;
11228;SDS011;5671;47.936;8.716;2022-09-12T06:29:40;1.07;;;1.07;;
11228;SDS011;5671;47.936;8.716;2022-09-12T06:32:07;2.43;;;1.13;;
11228;SDS011;5671;47.936;8.716;2022-09-12T06:34:35;14.00;;;1.60;;
11228;SDS011;5671;47.936;8.716;2022-09-12T06:37:02;16.47;;;2.00;;
11228;SDS011;5671;47.936;8.716;2022-09-12T06:39:29;27.63;;;2.30;;
11228;SDS011;5671;47.936;8.716;2022-09-12T06:41:58;13.27;;;1.90;;
11228;SDS011;5671;47.936;8.716;2022-09-12T06:44:25;31.10;;;2.20;;
11228;SDS011;5671;47.936;8.716;2022-09-12T06:46:52;24.07;;;2.07;;
11228;SDS011;5671;47.936;8.716;2022-09-12T06:49:19;52.13;;;2.40;;
11228;SDS011;5671;47.936;8.716;2022-09-12T06:51:45;31.60;;;2.27;;
11228;SDS011;5671;47.936;8.716;2022-09-12T06:54:13;83.23;;;3.10;;
11228;SDS011;5671;47.936;8.716;2022-09-12T06:56:41;3.20;;;1.60;;
11228;SDS011;5671;47.936;8.716;2022-09-12T06:59:09;21.03;;;2.03;;
11228;SDS011;5671;47.936;8.716;2022-09-12T07:01:37;7.33;;;1.60;;
11228;SDS011;5671;47.936;8.716;2022-09-12T07:04:05;6.20;;;1.90;;
11228;SDS011;5671;47.936;8.716;2022-09-12T07:06:36;10.83;;;2.17;;
11228;SDS011;5671;47.936;8.716;2022-09-12T07:09:05;5.13;;;2.00;;
11228;SDS011;5671;47.936;8.716;2022-09-12T07:11:34;5.77;;;1.80;;
11228;SDS011;5671;47.936;8.716;2022-09-12T07:14:04;2.07;;;1.80;;
11228;SDS011;5671;47.936;8.716;2022-09-12T07:16:34;1.70;;;1.60;;
11228;SDS011;5671;47.936;8.716;2022-09-12T07:19:03;3.17;;;1.50;;
11228;SDS011;5671;47.936;8.716;2022-09-12T07:21:31;2.17;;;2.07;;
11228;SDS011;5671;47.936;8.716;2022-09-12T07:24:03;1.73;;;1.63;;
11228;SDS011;5671;47.936;8.716;2022-09-12T07:26:30;1.43;;;1.33;;
11228;SDS011;5671;47.936;8.716;2022-09-12T07:28:58;1.30;;;1.30;;
11228;SDS011;5671;47.936;8.716;2022-09-12T07:31:25;1.40;;;1.30;;
11228;SDS011;5671;47.936;8.716;2022-09-12T07:33:54;1.43;;;1.33;;
11228;SDS011;5671;47.936;8.716;2022-09-12T07:36:22;2.33;;;1.60;;
11228;SDS011;5671;47.936;8.716;2022-09-12T07:38:52;1.40;;;1.30;;
11228;SDS011;5671;47.936;8.716;2022-09-12T07:41:21;1.27;;;1.23;;
11228;SDS011;5671;47.936;8.716;2022-09-12T07:43:50;1.43;;;1.33;;
11228;SDS011;5671;47.936;8.716;2022-09-12T07:46:17;1.70;;;1.60;;
11228;SDS011;5671;47.936;8.716;2022-09-12T07:48:49;2.70;;;1.60;;
11228;SDS011;5671;47.936;8.716;2022-09-12T07:51:20;2.43;;;1.53;;
11228;SDS011;5671;47.936;8.716;2022-09-12T07:53:47;1.90;;;1.80;;
11228;SDS011;5671;47.936;8.716;2022-09-12T07:56:28;3.30;;;1.90;;
11228;SDS011;5671;47.936;8.716;2022-09-12T07:58:55;1.53;;;1.43;;
11228;SDS011;5671;47.936;8.716;2022-09-12T08:01:23;1.63;;;1.53;;
11228;SDS011;5671;47.936;8.716;2022-09-12T08:03:52;2.10;;;1.50;;
11228;SDS011;5671;47.936;8.716;2022-09-12T08:06:22;2.17;;;1.60;;
11228;SDS011;5671;47.936;8.716;2022-09-12T08:08:51;1.90;;;1.80;;
11228;SDS011;5671;47.936;8.716;2022-09-12T08:11:34;1.97;;;1.83;;
11228;SDS011;5671;47.936;8.716;2022-09-12T08:14:21;2.90;;;1.50;;
11228;SDS011;5671;47.936;8.716;2022-09-12T08:16:48;2.83;;;1.57;;
11228;SDS011;5671;47.936;8.716;2022-09-12T08:19:17;2.30;;;1.77;;
11228;SDS011;5671;47.936;8.716;2022-09-12T08:21:59;2.80;;;1.67;;
11228;SDS011;5671;47.936;8.716;2022-09-12T08:27:50;1.93;;;1.57;;
11228;SDS011;5671;47.936;8.716;2022-09-12T08:30:17;1.87;;;1.60;;
11228;SDS011;5671;47.936;8.716;2022-09-12T08:32:43;2.97;;;1.50;;
11228;SDS011;5671;47.936;8.716;2022-09-12T08:35:11;2.03;;;1.43;;
11228;SDS011;5671;47.936;8.716;2022-09-12T08:37:40;1.40;;;1.30;;
11228;SDS011;5671;47.936;8.716;2022-09-12T08:40:08;1.47;;;1.37;;
11228;SDS011;5671;47.936;8.716;2022-09-12T08:42:44;2.07;;;1.33;;
11228;SDS011;5671;47.936;8.716;2022-09-12T08:45:17;1.53;;;1.20;;
11228;SDS011;5671;47.936;8.716;2022-09-12T08:47:46;2.23;;;1.43;;
11228;SDS011;5671;47.936;8.716;2022-09-12T08:50:16;1.60;;;1.50;;
11228;SDS011;5671;47.936;8.716;2022-09-12T08:52:51;3.87;;;1.50;;
11228;SDS011;5671;47.936;8.716;2022-09-12T08:55:32;2.50;;;1.30;;
11228;SDS011;5671;47.936;8.716;2022-09-12T08:58:01;1.83;;;1.73;;
11228;SDS011;5671;47.936;8.716;2022-09-12T09:00:37;3.07;;;1.60;;
11228;SDS011;5671;47.936;8.716;2022-09-12T09:06:16;1.83;;;1.50;;
11228;SDS011;5671;47.936;8.716;2022-09-12T09:08:58;2.00;;;1.50;;
11228;SDS011;5671;47.936;8.716;2022-09-12T09:11:33;3.23;;;1.40;;
11228;SDS011;5671;47.936;8.716;2022-09-12T09:14:20;2.73;;;1.27;;
11228;SDS011;5671;47.936;8.716;2022-09-12T09:17:38;3.63;;;1.40;;
11228;SDS011;5671;47.936;8.716;2022-09-12T09:20:14;1.67;;;1.33;;
11228;SDS011;5671;47.936;8.716;2022-09-12T09:23:27;1.33;;;1.23;;
11228;SDS011;5671;47.936;8.716;2022-09-12T09:26:25;2.40;;;0.93;;
11228;SDS011;5671;47.936;8.716;2022-09-12T09:28:57;1.20;;;1.10;;
11228;SDS011;5671;47.936;8.716;2022-09-12T09:31:29;0.93;;;0.90;;
11228;SDS011;5671;47.936;8.716;2022-09-12T09:33:58;1.33;;;1.00;;
11228;SDS011;5671;47.936;8.716;2022-09-12T09:36:29;1.90;;;1.17;;
11228;SDS011;5671;47.936;8.716;2022-09-12T09:39:04;1.23;;;0.90;;
11228;SDS011;5671;47.936;8.716;2022-09-12T09:41:44;1.33;;;0.90;;
11228;SDS011;5671;47.936;8.716;2022-09-12T09:44:21;0.73;;;0.73;;
11228;SDS011;5671;47.936;8.716;2022-09-12T09:46:49;0.93;;;0.80;;
11228;SDS011;5671;47.936;8.716;2022-09-12T09:49:19;0.60;;;0.60;;
11228;SDS011;5671;47.936;8.716;2022-09-12T09:51:47;0.67;;;0.67;;
11228;SDS011;5671;47.936;8.716;2022-09-12T09:54:16;0.77;;;0.73;;
11228;SDS011;5671;47.936;8.716;2022-09-12T09:56:57;0.57;;;0.57;;
11228;SDS011;5671;47.936;8.716;2022-09-12T09:59:25;0.90;;;0.50;;
11228;SDS011;5671;47.936;8.716;2022-09-12T10:01:53;1.57;;;1.00;;
11228;SDS011;5671;47.936;8.716;2022-09-12T10:04:22;0.80;;;0.80;;
11228;SDS011;5671;47.936;8.716;2022-09-12T10:06:52;0.87;;;0.87;;
11228;SDS011;5671;47.936;8.716;2022-09-12T10:09:22;0.83;;;0.70;;
11228;SDS011;5671;47.936;8.716;2022-09-12T10:11:51;0.90;;;0.90;;
11228;SDS011;5671;47.936;8.716;2022-09-12T10:14:29;1.40;;;1.10;;
11228;SDS011;5671;47.936;8.716;2022-09-12T10:16:59;1.10;;;1.00;;
11228;SDS011;5671;47.936;8.716;2022-09-12T10:19:35;1.40;;;0.90;;
11228;SDS011;5671;47.936;8.716;2022-09-12T10:22:22;1.67;;;0.83;;
11228;SDS011;5671;47.936;8.716;2022-09-12T10:24:58;1.20;;;1.07;;
11228;SDS011;5671;47.936;8.716;2022-09-12T10:27:27;0.70;;;0.70;;
11228;SDS011;5671;47.936;8.716;2022-09-12T10:30:01;1.33;;;1.00;;
11228;SDS011;5671;47.936;8.716;2022-09-12T10:32:32;3.57;;;1.23;;
11228;SDS011;5671;47.936;8.716;2022-09-12T10:35:07;1.33;;;0.90;;
11228;SDS011;5671;47.936;8.716;2022-09-12T10:37:49;1.97;;;1.13;;
11228;SDS011;5671;47.936;8.716;2022-09-12T10:40:20;3.53;;;1.00;;
11228;SDS011;5671;47.936;8.716;2022-09-12T10:42:49;1.43;;;0.90;;
11228;SDS011;5671;47.936;8.716;2022-09-12T10:45:20;1.50;;;0.80;;
11228;SDS011;5671;47.936;8.716;2022-09-12T10:47:53;1.47;;;0.77;;
11228;SDS011;5671;47.936;8.716;2022-09-12T10:50:24;1.20;;;0.80;;
11228;SDS011;5671;47.936;8.716;2022-09-12T10:52:53;1.00;;;1.00;;
11228;SDS011;5671;47.936;8.716;2022-09-12T10:55:23;3.30;;;0.93;;
11228;SDS011;5671;47.936;8.716;2022-09-12T10:58:08;1.47;;;0.80;;
11228;SDS011;5671;47.936;8.716;2022-09-12T11:00:48;0.80;;;0.80;;
11228;SDS011;5671;47.936;8.716;2022-09-12T11:03:21;1.80;;;1.10;;
11228;SDS011;5671;47.936;8.716;2022-09-12T11:05:54;3.60;;;1.00;;
11228;SDS011;5671;47.936;8.716;2022-09-12T11:11:33;1.10;;;1.10;;
11228;SDS011;5671;47.936;8.716;2022-09-12T11:14:15;0.80;;;0.80;;
11228;SDS011;5671;47.936;8.716;2022-09-12T11:17:00;0.77;;;0.73;;
11228;SDS011;5671;47.936;8.716;2022-09-12T11:19:58;0.90;;;0.90;;
11228;SDS011;5671;47.936;8.716;2022-09-12T11:22:59;1.50;;;1.07;;
11228;SDS011;5671;47.936;8.716;2022-09-12T11:25:42;0.80;;;0.80;;
11228;SDS011;5671;47.936;8.716;2022-09-12T11:28:18;1.00;;;0.90;;
11228;SDS011;5671;47.936;8.716;2022-09-12T11:30:59;2.40;;;1.30;;
11228;SDS011;5671;47.936;8.716;2022-09-12T11:33:49;2.03;;;0.97;;
11228;SDS011;5671;47.936;8.716;2022-09-12T11:36:22;1.77;;;0.90;;
11228;SDS011;5671;47.936;8.716;2022-09-12T11:38:58;1.53;;;1.00;;
11228;SDS011;5671;47.936;8.716;2022-09-12T11:41:30;1.03;;;0.80;;
11228;SDS011;5671;47.936;8.716;2022-09-12T11:44:02;0.83;;;0.57;;
11228;SDS011;5671;47.936;8.716;2022-09-12T11:46:38;1.03;;;0.90;;
11228;SDS011;5671;47.936;8.716;2022-09-12T11:52:21;1.10;;;0.90;;
11228;SDS011;5671;47.936;8.716;2022-09-12T11:54:52;0.73;;;0.50;;
11228;SDS011;5671;47.936;8.716;2022-09-12T11:57:32;2.00;;;0.70;;
11228;SDS011;5671;47.936;8.716;2022-09-12T12:13:57;0.60;;;0.50;;
11228;SDS011;5671;47.936;8.716;2022-09-12T12:16:50;0.40;;;0.37;;
11228;SDS011;5671;47.936;8.716;2022-09-12T12:19:30;0.50;;;0.50;;
11228;SDS011;5671;47.936;8.716;2022-09-12T12:22:28;1.50;;;0.80;;
11228;SDS011;5671;47.936;8.716;2022-09-12T12:32:41;0.53;;;0.40;;
11228;SDS011;5671;47.936;8.716;2022-09-12T12:59:51;2.67;;;0.93;;
11228;SDS011;5671;47.936;8.716;2022-09-12T13:06:55;3.50;;;0.67;;
11228;SDS011;5671;47.936;8.716;2022-09-12T13:16:58;6.60;;;0.70;;
11228;SDS011;5671;47.936;8.716;2022-09-12T13:20:11;1.43;;;0.90;;
11228;SDS011;5671;47.936;8.716;2022-09-12T13:25:33;0.60;;;0.60;;
11228;SDS011;5671;47.936;8.716;2022-09-12T13:28:20;0.80;;;0.60;;
11228;SDS011;5671;47.936;8.716;2022-09-12T13:31:43;1.30;;;0.53;;
11228;SDS011;5671;47.936;8.716;2022-09-12T13:48:14;2.20;;;0.43;;
11228;SDS011;5671;47.936;8.716;2022-09-12T13:50:48;2.40;;;0.80;;
11228;SDS011;5671;47.936;8.716;2022-09-12T13:53:18;1.57;;;0.70;;
11228;SDS011;5671;47.936;8.716;2022-09-12T13:55:49;1.23;;;0.50;;
11228;SDS011;5671;47.936;8.716;2022-09-12T13:58:20;1.80;;;0.70;;
11228;SDS011;5671;47.936;8.716;2022-09-12T14:01:04;0.60;;;0.60;;
11228;SDS011;5671;47.936;8.716;2022-09-12T14:03:37;3.40;;;0.97;;
11228;SDS011;5671;47.936;8.716;2022-09-12T14:06:23;1.37;;;0.90;;
11228;SDS011;5671;47.936;8.716;2022-09-12T14:08:57;0.60;;;0.60;;
11228;SDS011;5671;47.936;8.716;2022-09-12T14:11:26;1.03;;;0.70;;
11228;SDS011;5671;47.936;8.716;2022-09-12T14:13:54;0.60;;;0.60;;
11228;SDS011;5671;47.936;8.716;2022-09-12T14:16:23;3.20;;;0.80;;
11228;SDS011;5671;47.936;8.716;2022-09-12T14:18:53;1.03;;;0.80;;
11228;SDS011;5671;47.936;8.716;2022-09-12T14:21:31;1.50;;;0.90;;
11228;SDS011;5671;47.936;8.716;2022-09-12T14:24:00;1.33;;;0.87;;
11228;SDS011;5671;47.936;8.716;2022-09-12T14:26:32;0.83;;;0.77;;
11228;SDS011;5671;47.936;8.716;2022-09-12T14:29:00;4.53;;;1.27;;
11228;SDS011;5671;47.936;8.716;2022-09-12T14:31:31;0.73;;;0.73;;
11228;SDS011;5671;47.936;8.716;2022-09-12T14:34:09;2.53;;;0.70;;
11228;SDS011;5671;47.936;8.716;2022-09-12T14:36:47;3.13;;;0.80;;
11228;SDS011;5671;47.936;8.716;2022-09-12T14:39:17;0.50;;;0.50;;
11228;SDS011;5671;47.936;8.716;2022-09-12T14:41:59;1.73;;;0.90;;
11228;SDS011;5671;47.936;8.716;2022-09-12T14:44:27;3.00;;;1.00;;
11228;SDS011;5671;47.936;8.716;2022-09-12T14:47:10;2.10;;;0.70;;
11228;SDS011;5671;47.936;8.716;2022-09-12T14:49:41;0.83;;;0.83;;
11228;SDS011;5671;47.936;8.716;2022-09-12T14:52:19;1.53;;;0.73;;
11228;SDS011;5671;47.936;8.716;2022-09-12T14:54:56;1.13;;;0.53;;
11228;SDS011;5671;47.936;8.716;2022-09-12T14:57:31;1.57;;;0.97;;
11228;SDS011;5671;47.936;8.716;2022-09-12T15:00:04;2.57;;;1.10;;
11228;SDS011;5671;47.936;8.716;2022-09-12T15:02:44;0.70;;;0.70;;
11228;SDS011;5671;47.936;8.716;2022-09-12T15:05:24;0.70;;;0.70;;
11228;SDS011;5671;47.936;8.716;2022-09-12T15:07:58;1.53;;;0.90;;
11228;SDS011;5671;47.936;8.716;2022-09-12T15:10:29;0.83;;;0.77;;
11228;SDS011;5671;47.936;8.716;2022-09-12T15:15:48;1.23;;;1.13;;
11228;SDS011;5671;47.936;8.716;2022-09-12T15:18:17;1.77;;;0.67;;
11228;SDS011;5671;47.936;8.716;2022-09-12T15:20:47;2.27;;;1.07;;
11228;SDS011;5671;47.936;8.716;2022-09-12T15:23:18;0.80;;;0.80;;
11228;SDS011;5671;47.936;8.716;2022-09-12T15:25:49;2.20;;;0.80;;
11228;SDS011;5671;47.936;8.716;2022-09-12T15:28:17;2.83;;;1.20;;
11228;SDS011;5671;47.936;8.716;2022-09-12T15:30:48;5.93;;;1.30;;
11228;SDS011;5671;47.936;8.716;2022-09-12T15:33:17;1.37;;;1.23;;
11228;SDS011;5671;47.936;8.716;2022-09-12T15:35:48;1.10;;;1.00;;
11228;SDS011;5671;47.936;8.716;2022-09-12T15:38:15;5.47;;;1.10;;
11228;SDS011;5671;47.936;8.716;2022-09-12T15:40:42;1.50;;;1.17;;
11228;SDS011;5671;47.936;8.716;2022-09-12T15:43:10;1.20;;;1.10;;
11228;SDS011;5671;47.936;8.716;2022-09-12T15:45:40;4.10;;;1.20;;
11228;SDS011;5671;47.936;8.716;2022-09-12T15:48:08;2.70;;;1.07;;
11228;SDS011;5671;47.936;8.716;2022-09-12T15:50:35;1.43;;;1.00;;
11228;SDS011;5671;47.936;8.716;2022-09-12T15:53:03;0.80;;;0.80;;
11228;SDS011;5671;47.936;8.716;2022-09-12T15:55:30;1.63;;;1.20;;
11228;SDS011;5671;47.936;8.716;2022-09-12T16:03:34;2.70;;;1.37;;
11228;SDS011;5671;47.936;8.716;2022-09-12T16:03:44;1.20;;;1.10;;
11228;SDS011;5671;47.936;8.716;2022-09-12T16:06:11;1.57;;;1.10;;
11228;SDS011;5671;47.936;8.716;2022-09-12T16:08:40;2.13;;;1.20;;
11228;SDS011;5671;47.936;8.716;2022-09-12T16:11:12;2.27;;;1.00;;
11228;SDS011;5671;47.936;8.716;2022-09-12T16:13:44;2.17;;;1.27;;
11228;SDS011;5671;47.936;8.716;2022-09-12T16:16:11;1.83;;;1.03;;
11228;SDS011;5671;47.936;8.716;2022-09-12T16:18:38;1.77;;;1.20;;
11228;SDS011;5671;47.936;8.716;2022-09-12T16:21:05;1.43;;;1.00;;
11228;SDS011;5671;47.936;8.716;2022-09-12T16:23:32;4.17;;;1.50;;
11228;SDS011;5671;47.936;8.716;2022-09-12T16:26:01;2.30;;;1.13;;
11228;SDS011;5671;47.936;8.716;2022-09-12T16:28:30;1.20;;;1.00;;
11228;SDS011;5671;47.936;8.716;2022-09-12T16:30:58;1.87;;;1.30;;
11228;SDS011;5671;47.936;8.716;2022-09-12T16:33:26;1.63;;;1.37;;
11228;SDS011;5671;47.936;8.716;2022-09-12T16:35:59;5.53;;;1.50;;
11228;SDS011;5671;47.936;8.716;2022-09-12T16:38:28;3.33;;;1.47;;
11228;SDS011;5671;47.936;8.716;2022-09-12T16:40:58;3.80;;;1.47;;
11228;SDS011;5671;47.936;8.716;2022-09-12T16:43:28;5.17;;;1.60;;
11228;SDS011;5671;47.936;8.716;2022-09-12T16:45:59;4.37;;;1.50;;
11228;SDS011;5671;47.936;8.716;2022-09-12T16:48:28;2.80;;;1.40;;
11228;SDS011;5671;47.936;8.716;2022-09-12T16:51:37;1.60;;;1.47;;
11228;SDS011;5671;47.936;8.716;2022-09-12T16:56:51;3.27;;;1.43;;
11228;SDS011;5671;47.936;8.716;2022-09-12T16:59:18;3.60;;;1.60;;
11228;SDS011;5671;47.936;8.716;2022-09-12T17:01:45;2.20;;;1.43;;
11228;SDS011;5671;47.936;8.716;2022-09-12T17:17:49;1.67;;;1.50;;
11228;SDS011;5671;47.936;8.716;2022-09-12T17:20:16;4.17;;;1.50;;
11228;SDS011;5671;47.936;8.716;2022-09-12T17:22:43;2.30;;;1.47;;
11228;SDS011;5671;47.936;8.716;2022-09-12T17:25:10;3.60;;;1.50;;